sensor_id;sensor_type;location;lat;lon;timestamp;P1;durP1;ratioP1;P2;durP2;ratioP2
64351;SDS011;50680;52.626;-8.668;2022-12-29T00:01:05;7.55;;;1.10;;
64351;SDS011;50680;52.626;-8.668;2022-12-29T00:03:32;15.38;;;1.52;;
64351;SDS011;50680;52.626;-8.668;2022-12-29T00:05:59;6.45;;;1.60;;
64351;SDS011;50680;52.626;-8.668;2022-12-29T00:08:27;8.48;;;1.55;;
64351;SDS011;50680;52.626;-8.668;2022-12-29T00:11:16;10.95;;;1.42;;
64351;SDS011;50680;52.626;-8.668;2022-12-29T00:13:47;8.07;;;1.42;;
64351;SDS011;50680;52.626;-8.668;2022-12-29T00:16:33;15.70;;;1.73;;
64351;SDS011;50680;52.626;-8.668;2022-12-29T00:19:02;11.60;;;1.50;;
64351;SDS011;50680;52.626;-8.668;2022-12-29T00:21:30;9.73;;;1.38;;
64351;SDS011;50680;52.626;-8.668;2022-12-29T00:24:17;15.38;;;1.70;;
64351;SDS011;50680;52.626;-8.668;2022-12-29T00:29:49;4.82;;;1.20;;
64351;SDS011;50680;52.626;-8.668;2022-12-29T00:32:34;6.78;;;1.00;;
64351;SDS011;50680;52.626;-8.668;2022-12-29T00:35:25;13.60;;;1.20;;
64351;SDS011;50680;52.626;-8.668;2022-12-29T00:37:59;7.05;;;1.13;;
64351;SDS011;50680;52.626;-8.668;2022-12-29T00:40:50;6.20;;;1.30;;
64351;SDS011;50680;52.626;-8.668;2022-12-29T00:43:35;15.60;;;1.25;;
64351;SDS011;50680;52.626;-8.668;2022-12-29T00:46:21;6.75;;;1.25;;
64351;SDS011;50680;52.626;-8.668;2022-12-29T00:48:48;8.50;;;1.23;;
64351;SDS011;50680;52.626;-8.668;2022-12-29T00:51:33;11.52;;;1.00;;
64351;SDS011;50680;52.626;-8.668;2022-12-29T00:54:00;11.40;;;1.90;;
64351;SDS011;50680;52.626;-8.668;2022-12-29T00:56:26;9.73;;;1.20;;
64351;SDS011;50680;52.626;-8.668;2022-12-29T00:58:53;8.40;;;1.30;;
64351;SDS011;50680;52.626;-8.668;2022-12-29T01:01:20;4.63;;;0.95;;
64351;SDS011;50680;52.626;-8.668;2022-12-29T01:03:47;8.88;;;1.83;;
64351;SDS011;50680;52.626;-8.668;2022-12-29T01:06:14;3.83;;;1.02;;
64351;SDS011;50680;52.626;-8.668;2022-12-29T01:08:41;5.47;;;1.42;;
64351;SDS011;50680;52.626;-8.668;2022-12-29T01:11:09;7.80;;;2.22;;
64351;SDS011;50680;52.626;-8.668;2022-12-29T01:13:37;12.93;;;1.88;;
64351;SDS011;50680;52.626;-8.668;2022-12-29T01:16:07;11.43;;;1.15;;
64351;SDS011;50680;52.626;-8.668;2022-12-29T01:18:34;11.02;;;1.42;;
64351;SDS011;50680;52.626;-8.668;2022-12-29T01:21:01;8.75;;;1.42;;
64351;SDS011;50680;52.626;-8.668;2022-12-29T01:23:30;13.20;;;2.58;;
64351;SDS011;50680;52.626;-8.668;2022-12-29T01:25:57;9.05;;;1.67;;
64351;SDS011;50680;52.626;-8.668;2022-12-29T01:28:34;8.45;;;1.85;;
64351;SDS011;50680;52.626;-8.668;2022-12-29T01:31:01;8.15;;;1.92;;
64351;SDS011;50680;52.626;-8.668;2022-12-29T01:33:28;8.85;;;1.55;;
64351;SDS011;50680;52.626;-8.668;2022-12-29T01:35:55;5.07;;;1.25;;
64351;SDS011;50680;52.626;-8.668;2022-12-29T01:40:53;5.65;;;0.88;;
64351;SDS011;50680;52.626;-8.668;2022-12-29T01:43:20;7.00;;;1.33;;
64351;SDS011;50680;52.626;-8.668;2022-12-29T01:45:50;6.97;;;1.00;;
64351;SDS011;50680;52.626;-8.668;2022-12-29T01:48:19;9.57;;;1.17;;
64351;SDS011;50680;52.626;-8.668;2022-12-29T01:50:49;6.40;;;1.17;;
64351;SDS011;50680;52.626;-8.668;2022-12-29T01:53:23;10.88;;;2.17;;
64351;SDS011;50680;52.626;-8.668;2022-12-29T01:55:55;12.55;;;1.52;;
64351;SDS011;50680;52.626;-8.668;2022-12-29T01:58:27;6.18;;;0.98;;
64351;SDS011;50680;52.626;-8.668;2022-12-29T02:00:59;6.43;;;0.90;;
64351;SDS011;50680;52.626;-8.668;2022-12-29T02:03:26;4.15;;;1.45;;
64351;SDS011;50680;52.626;-8.668;2022-12-29T02:06:01;11.50;;;1.40;;
64351;SDS011;50680;52.626;-8.668;2022-12-29T02:08:49;6.80;;;1.27;;
64351;SDS011;50680;52.626;-8.668;2022-12-29T02:11:18;10.75;;;1.13;;
64351;SDS011;50680;52.626;-8.668;2022-12-29T02:13:46;9.27;;;1.52;;
64351;SDS011;50680;52.626;-8.668;2022-12-29T02:24:00;11.45;;;1.73;;
64351;SDS011;50680;52.626;-8.668;2022-12-29T02:44:15;12.23;;;1.77;;
64351;SDS011;50680;52.626;-8.668;2022-12-29T02:46:55;13.75;;;1.73;;
64351;SDS011;50680;52.626;-8.668;2022-12-29T02:52:04;5.72;;;1.20;;
64351;SDS011;50680;52.626;-8.668;2022-12-29T02:54:49;18.80;;;2.08;;
64351;SDS011;50680;52.626;-8.668;2022-12-29T02:59:51;13.63;;;1.33;;
64351;SDS011;50680;52.626;-8.668;2022-12-29T03:02:34;12.88;;;2.50;;
64351;SDS011;50680;52.626;-8.668;2022-12-29T03:08:34;10.13;;;1.80;;
64351;SDS011;50680;52.626;-8.668;2022-12-29T03:11:11;9.40;;;1.42;;
64351;SDS011;50680;52.626;-8.668;2022-12-29T03:14:02;13.73;;;1.70;;
64351;SDS011;50680;52.626;-8.668;2022-12-29T03:17:03;5.35;;;1.30;;
64351;SDS011;50680;52.626;-8.668;2022-12-29T03:19:42;12.50;;;1.25;;
64351;SDS011;50680;52.626;-8.668;2022-12-29T03:22:16;12.18;;;2.03;;
64351;SDS011;50680;52.626;-8.668;2022-12-29T03:24:54;16.95;;;1.80;;
64351;SDS011;50680;52.626;-8.668;2022-12-29T03:27:27;9.50;;;1.75;;
64351;SDS011;50680;52.626;-8.668;2022-12-29T03:29:58;13.32;;;1.98;;
64351;SDS011;50680;52.626;-8.668;2022-12-29T03:32:33;12.30;;;2.58;;
64351;SDS011;50680;52.626;-8.668;2022-12-29T03:35:04;17.52;;;2.80;;
64351;SDS011;50680;52.626;-8.668;2022-12-29T03:37:37;18.30;;;2.20;;
64351;SDS011;50680;52.626;-8.668;2022-12-29T03:40:07;12.43;;;2.10;;
64351;SDS011;50680;52.626;-8.668;2022-12-29T03:42:35;13.65;;;2.67;;
64351;SDS011;50680;52.626;-8.668;2022-12-29T03:45:03;17.02;;;2.72;;
64351;SDS011;50680;52.626;-8.668;2022-12-29T03:47:32;11.23;;;2.22;;
64351;SDS011;50680;52.626;-8.668;2022-12-29T03:49:59;12.68;;;2.35;;
64351;SDS011;50680;52.626;-8.668;2022-12-29T03:52:26;16.77;;;2.00;;
64351;SDS011;50680;52.626;-8.668;2022-12-29T03:54:53;13.10;;;1.95;;
64351;SDS011;50680;52.626;-8.668;2022-12-29T03:57:20;15.30;;;2.33;;
64351;SDS011;50680;52.626;-8.668;2022-12-29T03:59:46;10.07;;;2.03;;
64351;SDS011;50680;52.626;-8.668;2022-12-29T04:02:13;15.43;;;2.33;;
64351;SDS011;50680;52.626;-8.668;2022-12-29T04:04:40;11.10;;;2.08;;
64351;SDS011;50680;52.626;-8.668;2022-12-29T04:07:07;15.35;;;2.45;;
64351;SDS011;50680;52.626;-8.668;2022-12-29T04:09:34;13.80;;;2.25;;
64351;SDS011;50680;52.626;-8.668;2022-12-29T04:12:01;14.57;;;2.13;;
64351;SDS011;50680;52.626;-8.668;2022-12-29T04:14:28;15.40;;;2.35;;
64351;SDS011;50680;52.626;-8.668;2022-12-29T04:16:55;13.23;;;1.92;;
64351;SDS011;50680;52.626;-8.668;2022-12-29T04:19:21;15.43;;;2.30;;
64351;SDS011;50680;52.626;-8.668;2022-12-29T04:21:48;12.32;;;1.77;;
64351;SDS011;50680;52.626;-8.668;2022-12-29T04:24:16;14.65;;;2.40;;
64351;SDS011;50680;52.626;-8.668;2022-12-29T04:26:44;12.30;;;1.85;;
64351;SDS011;50680;52.626;-8.668;2022-12-29T04:29:10;7.93;;;1.92;;
64351;SDS011;50680;52.626;-8.668;2022-12-29T04:31:37;10.82;;;1.85;;
64351;SDS011;50680;52.626;-8.668;2022-12-29T04:34:04;10.50;;;2.20;;
64351;SDS011;50680;52.626;-8.668;2022-12-29T04:36:31;11.07;;;1.98;;
64351;SDS011;50680;52.626;-8.668;2022-12-29T04:38:58;19.80;;;2.03;;
64351;SDS011;50680;52.626;-8.668;2022-12-29T04:41:25;14.55;;;2.55;;
64351;SDS011;50680;52.626;-8.668;2022-12-29T04:43:52;15.93;;;1.40;;
64351;SDS011;50680;52.626;-8.668;2022-12-29T04:46:19;16.45;;;1.50;;
64351;SDS011;50680;52.626;-8.668;2022-12-29T04:48:45;9.15;;;1.73;;
64351;SDS011;50680;52.626;-8.668;2022-12-29T04:51:12;9.57;;;1.50;;
64351;SDS011;50680;52.626;-8.668;2022-12-29T04:53:39;9.70;;;1.55;;
64351;SDS011;50680;52.626;-8.668;2022-12-29T04:56:06;5.00;;;1.10;;
64351;SDS011;50680;52.626;-8.668;2022-12-29T04:58:33;6.80;;;1.10;;
64351;SDS011;50680;52.626;-8.668;2022-12-29T05:00:59;3.28;;;1.10;;
64351;SDS011;50680;52.626;-8.668;2022-12-29T05:03:26;8.60;;;1.58;;
64351;SDS011;50680;52.626;-8.668;2022-12-29T05:05:54;4.18;;;1.27;;
64351;SDS011;50680;52.626;-8.668;2022-12-29T05:08:21;6.40;;;1.20;;
64351;SDS011;50680;52.626;-8.668;2022-12-29T05:10:53;10.85;;;1.60;;
64351;SDS011;50680;52.626;-8.668;2022-12-29T05:13:20;12.20;;;1.60;;
64351;SDS011;50680;52.626;-8.668;2022-12-29T05:15:49;7.90;;;1.48;;
64351;SDS011;50680;52.626;-8.668;2022-12-29T05:18:19;10.43;;;2.10;;
64351;SDS011;50680;52.626;-8.668;2022-12-29T05:20:46;7.60;;;1.80;;
64351;SDS011;50680;52.626;-8.668;2022-12-29T05:23:14;11.65;;;1.30;;
64351;SDS011;50680;52.626;-8.668;2022-12-29T05:25:41;14.77;;;2.03;;
64351;SDS011;50680;52.626;-8.668;2022-12-29T05:28:11;14.55;;;1.80;;
64351;SDS011;50680;52.626;-8.668;2022-12-29T05:30:39;10.38;;;1.77;;
64351;SDS011;50680;52.626;-8.668;2022-12-29T05:33:06;11.88;;;1.67;;
64351;SDS011;50680;52.626;-8.668;2022-12-29T05:35:33;10.30;;;2.00;;
64351;SDS011;50680;52.626;-8.668;2022-12-29T05:38:00;15.68;;;1.90;;
64351;SDS011;50680;52.626;-8.668;2022-12-29T05:40:27;14.15;;;2.83;;
64351;SDS011;50680;52.626;-8.668;2022-12-29T05:42:53;16.60;;;2.35;;
64351;SDS011;50680;52.626;-8.668;2022-12-29T05:45:20;14.77;;;1.67;;
64351;SDS011;50680;52.626;-8.668;2022-12-29T05:47:47;7.50;;;2.13;;
64351;SDS011;50680;52.626;-8.668;2022-12-29T05:50:14;12.43;;;1.45;;
64351;SDS011;50680;52.626;-8.668;2022-12-29T05:52:40;6.55;;;1.30;;
64351;SDS011;50680;52.626;-8.668;2022-12-29T05:55:07;10.88;;;1.63;;
64351;SDS011;50680;52.626;-8.668;2022-12-29T05:57:34;7.25;;;1.27;;
64351;SDS011;50680;52.626;-8.668;2022-12-29T06:00:02;6.82;;;1.98;;
64351;SDS011;50680;52.626;-8.668;2022-12-29T06:02:30;7.82;;;1.60;;
64351;SDS011;50680;52.626;-8.668;2022-12-29T06:04:57;5.97;;;1.77;;
64351;SDS011;50680;52.626;-8.668;2022-12-29T06:07:24;6.70;;;1.48;;
64351;SDS011;50680;52.626;-8.668;2022-12-29T06:09:51;5.50;;;1.45;;
64351;SDS011;50680;52.626;-8.668;2022-12-29T06:12:18;10.07;;;1.13;;
64351;SDS011;50680;52.626;-8.668;2022-12-29T06:14:44;9.25;;;1.52;;
64351;SDS011;50680;52.626;-8.668;2022-12-29T06:17:11;8.05;;;1.73;;
64351;SDS011;50680;52.626;-8.668;2022-12-29T06:19:38;9.95;;;1.73;;
64351;SDS011;50680;52.626;-8.668;2022-12-29T06:22:05;9.23;;;1.80;;
64351;SDS011;50680;52.626;-8.668;2022-12-29T06:24:33;10.70;;;1.58;;
64351;SDS011;50680;52.626;-8.668;2022-12-29T06:27:00;7.90;;;1.30;;
64351;SDS011;50680;52.626;-8.668;2022-12-29T06:29:27;6.45;;;1.38;;
64351;SDS011;50680;52.626;-8.668;2022-12-29T06:31:54;5.05;;;1.10;;
64351;SDS011;50680;52.626;-8.668;2022-12-29T06:34:24;6.82;;;1.50;;
64351;SDS011;50680;52.626;-8.668;2022-12-29T06:36:51;7.35;;;1.48;;
64351;SDS011;50680;52.626;-8.668;2022-12-29T06:39:18;3.75;;;1.05;;
64351;SDS011;50680;52.626;-8.668;2022-12-29T06:41:45;10.75;;;1.50;;
64351;SDS011;50680;52.626;-8.668;2022-12-29T06:44:11;6.78;;;1.08;;
64351;SDS011;50680;52.626;-8.668;2022-12-29T06:46:38;7.20;;;1.58;;
64351;SDS011;50680;52.626;-8.668;2022-12-29T06:49:05;9.75;;;1.63;;
64351;SDS011;50680;52.626;-8.668;2022-12-29T06:51:32;5.38;;;0.98;;
64351;SDS011;50680;52.626;-8.668;2022-12-29T06:53:59;13.68;;;1.50;;
64351;SDS011;50680;52.626;-8.668;2022-12-29T06:56:26;10.60;;;1.45;;
64351;SDS011;50680;52.626;-8.668;2022-12-29T06:58:52;12.93;;;1.65;;
64351;SDS011;50680;52.626;-8.668;2022-12-29T07:01:19;9.45;;;1.25;;
64351;SDS011;50680;52.626;-8.668;2022-12-29T07:03:46;8.93;;;1.27;;
64351;SDS011;50680;52.626;-8.668;2022-12-29T07:06:13;6.50;;;1.52;;
64351;SDS011;50680;52.626;-8.668;2022-12-29T07:08:40;10.38;;;1.63;;
64351;SDS011;50680;52.626;-8.668;2022-12-29T07:11:07;11.57;;;1.70;;
64351;SDS011;50680;52.626;-8.668;2022-12-29T07:13:36;15.95;;;1.92;;
64351;SDS011;50680;52.626;-8.668;2022-12-29T07:16:07;6.85;;;1.65;;
64351;SDS011;50680;52.626;-8.668;2022-12-29T07:18:35;13.18;;;3.38;;
64351;SDS011;50680;52.626;-8.668;2022-12-29T07:21:02;9.65;;;1.58;;
64351;SDS011;50680;52.626;-8.668;2022-12-29T07:23:29;6.05;;;1.73;;
64351;SDS011;50680;52.626;-8.668;2022-12-29T07:26:00;12.18;;;1.85;;
64351;SDS011;50680;52.626;-8.668;2022-12-29T07:28:28;17.08;;;1.63;;
64351;SDS011;50680;52.626;-8.668;2022-12-29T07:30:55;16.15;;;2.03;;
64351;SDS011;50680;52.626;-8.668;2022-12-29T07:33:22;13.05;;;2.22;;
64351;SDS011;50680;52.626;-8.668;2022-12-29T07:35:49;18.83;;;3.00;;
64351;SDS011;50680;52.626;-8.668;2022-12-29T07:38:16;20.33;;;2.33;;
64351;SDS011;50680;52.626;-8.668;2022-12-29T07:40:43;12.20;;;2.00;;
64351;SDS011;50680;52.626;-8.668;2022-12-29T07:43:09;13.88;;;1.83;;
64351;SDS011;50680;52.626;-8.668;2022-12-29T07:45:36;10.82;;;2.80;;
64351;SDS011;50680;52.626;-8.668;2022-12-29T07:48:04;16.52;;;2.40;;
64351;SDS011;50680;52.626;-8.668;2022-12-29T07:50:34;11.48;;;2.03;;
64351;SDS011;50680;52.626;-8.668;2022-12-29T07:53:01;20.50;;;2.70;;
64351;SDS011;50680;52.626;-8.668;2022-12-29T07:55:29;18.42;;;2.00;;
64351;SDS011;50680;52.626;-8.668;2022-12-29T07:57:56;16.55;;;1.98;;
64351;SDS011;50680;52.626;-8.668;2022-12-29T08:00:23;14.85;;;2.40;;
64351;SDS011;50680;52.626;-8.668;2022-12-29T08:02:50;10.75;;;2.15;;
64351;SDS011;50680;52.626;-8.668;2022-12-29T08:05:17;10.13;;;1.95;;
64351;SDS011;50680;52.626;-8.668;2022-12-29T08:07:44;9.18;;;1.67;;
64351;SDS011;50680;52.626;-8.668;2022-12-29T08:10:12;12.70;;;3.17;;
64351;SDS011;50680;52.626;-8.668;2022-12-29T08:12:40;14.00;;;1.80;;
64351;SDS011;50680;52.626;-8.668;2022-12-29T08:15:08;11.02;;;2.95;;
64351;SDS011;50680;52.626;-8.668;2022-12-29T08:17:36;13.95;;;2.85;;
64351;SDS011;50680;52.626;-8.668;2022-12-29T08:20:03;8.63;;;1.30;;
64351;SDS011;50680;52.626;-8.668;2022-12-29T08:22:31;8.85;;;1.80;;
64351;SDS011;50680;52.626;-8.668;2022-12-29T08:24:57;14.18;;;1.83;;
64351;SDS011;50680;52.626;-8.668;2022-12-29T08:27:25;7.93;;;1.85;;
64351;SDS011;50680;52.626;-8.668;2022-12-29T08:29:52;14.43;;;1.90;;
64351;SDS011;50680;52.626;-8.668;2022-12-29T08:32:19;12.13;;;1.80;;
64351;SDS011;50680;52.626;-8.668;2022-12-29T08:34:46;13.32;;;1.73;;
64351;SDS011;50680;52.626;-8.668;2022-12-29T08:37:13;11.48;;;1.65;;
64351;SDS011;50680;52.626;-8.668;2022-12-29T08:39:39;11.63;;;1.58;;
64351;SDS011;50680;52.626;-8.668;2022-12-29T08:42:06;8.32;;;1.35;;
64351;SDS011;50680;52.626;-8.668;2022-12-29T08:44:33;6.38;;;1.25;;
64351;SDS011;50680;52.626;-8.668;2022-12-29T08:47:00;12.13;;;1.63;;
64351;SDS011;50680;52.626;-8.668;2022-12-29T08:49:27;8.20;;;1.20;;
64351;SDS011;50680;52.626;-8.668;2022-12-29T08:51:53;8.07;;;1.90;;
64351;SDS011;50680;52.626;-8.668;2022-12-29T08:54:20;9.70;;;1.48;;
64351;SDS011;50680;52.626;-8.668;2022-12-29T08:56:47;8.48;;;1.50;;
64351;SDS011;50680;52.626;-8.668;2022-12-29T08:59:14;14.40;;;2.70;;
64351;SDS011;50680;52.626;-8.668;2022-12-29T09:01:40;14.25;;;1.95;;
64351;SDS011;50680;52.626;-8.668;2022-12-29T09:04:08;20.05;;;1.70;;
64351;SDS011;50680;52.626;-8.668;2022-12-29T09:06:42;14.23;;;1.80;;
64351;SDS011;50680;52.626;-8.668;2022-12-29T09:09:09;13.93;;;2.55;;
64351;SDS011;50680;52.626;-8.668;2022-12-29T09:11:37;16.52;;;2.28;;
64351;SDS011;50680;52.626;-8.668;2022-12-29T09:14:04;8.80;;;1.77;;
64351;SDS011;50680;52.626;-8.668;2022-12-29T09:16:31;19.35;;;3.42;;
64351;SDS011;50680;52.626;-8.668;2022-12-29T09:18:59;15.77;;;2.17;;
64351;SDS011;50680;52.626;-8.668;2022-12-29T09:21:26;19.75;;;3.08;;
64351;SDS011;50680;52.626;-8.668;2022-12-29T09:23:53;14.98;;;2.53;;
64351;SDS011;50680;52.626;-8.668;2022-12-29T09:26:20;14.88;;;1.98;;
64351;SDS011;50680;52.626;-8.668;2022-12-29T09:28:46;12.32;;;1.70;;
64351;SDS011;50680;52.626;-8.668;2022-12-29T09:31:13;12.73;;;2.03;;
64351;SDS011;50680;52.626;-8.668;2022-12-29T09:33:40;11.20;;;1.77;;
64351;SDS011;50680;52.626;-8.668;2022-12-29T09:36:08;14.57;;;2.67;;
64351;SDS011;50680;52.626;-8.668;2022-12-29T09:38:35;16.80;;;2.35;;
64351;SDS011;50680;52.626;-8.668;2022-12-29T09:46:28;10.05;;;1.70;;
64351;SDS011;50680;52.626;-8.668;2022-12-29T09:49:09;10.07;;;1.40;;
64351;SDS011;50680;52.626;-8.668;2022-12-29T09:51:46;6.22;;;0.98;;
64351;SDS011;50680;52.626;-8.668;2022-12-29T09:57:03;8.00;;;1.30;;
64351;SDS011;50680;52.626;-8.668;2022-12-29T09:59:36;11.20;;;1.80;;
64351;SDS011;50680;52.626;-8.668;2022-12-29T10:04:55;11.95;;;1.65;;
64351;SDS011;50680;52.626;-8.668;2022-12-29T10:12:51;12.93;;;1.48;;
64351;SDS011;50680;52.626;-8.668;2022-12-29T10:21:26;15.32;;;1.83;;
64351;SDS011;50680;52.626;-8.668;2022-12-29T10:24:06;11.52;;;2.17;;
64351;SDS011;50680;52.626;-8.668;2022-12-29T10:26:41;15.23;;;1.73;;
64351;SDS011;50680;52.626;-8.668;2022-12-29T10:31:47;8.35;;;1.30;;
64351;SDS011;50680;52.626;-8.668;2022-12-29T10:34:21;12.30;;;1.73;;
64351;SDS011;50680;52.626;-8.668;2022-12-29T10:36:54;8.48;;;1.10;;
64351;SDS011;50680;52.626;-8.668;2022-12-29T10:39:40;5.05;;;1.10;;
64351;SDS011;50680;52.626;-8.668;2022-12-29T10:42:23;6.90;;;1.00;;
64351;SDS011;50680;52.626;-8.668;2022-12-29T10:44:52;3.78;;;0.82;;
64351;SDS011;50680;52.626;-8.668;2022-12-29T10:47:24;4.78;;;0.90;;
64351;SDS011;50680;52.626;-8.668;2022-12-29T10:49:56;5.30;;;1.10;;
64351;SDS011;50680;52.626;-8.668;2022-12-29T10:52:24;7.32;;;1.05;;
64351;SDS011;50680;52.626;-8.668;2022-12-29T10:57:34;8.30;;;1.00;;
64351;SDS011;50680;52.626;-8.668;2022-12-29T11:00:11;5.68;;;1.17;;
64351;SDS011;50680;52.626;-8.668;2022-12-29T11:08:45;5.63;;;1.05;;
64351;SDS011;50680;52.626;-8.668;2022-12-29T11:11:14;7.20;;;1.20;;
64351;SDS011;50680;52.626;-8.668;2022-12-29T11:13:51;6.45;;;1.05;;
64351;SDS011;50680;52.626;-8.668;2022-12-29T11:16:30;6.30;;;1.00;;
64351;SDS011;50680;52.626;-8.668;2022-12-29T11:18:59;5.32;;;1.00;;
64351;SDS011;50680;52.626;-8.668;2022-12-29T11:24:18;5.88;;;1.38;;
64351;SDS011;50680;52.626;-8.668;2022-12-29T11:26:46;10.30;;;1.70;;
64351;SDS011;50680;52.626;-8.668;2022-12-29T11:32:26;8.88;;;1.73;;
64351;SDS011;50680;52.626;-8.668;2022-12-29T11:34:58;9.45;;;1.58;;
64351;SDS011;50680;52.626;-8.668;2022-12-29T11:37:28;6.20;;;1.25;;
64351;SDS011;50680;52.626;-8.668;2022-12-29T11:47:53;6.07;;;1.10;;
64351;SDS011;50680;52.626;-8.668;2022-12-29T11:50:28;5.00;;;1.30;;
64351;SDS011;50680;52.626;-8.668;2022-12-29T11:53:15;8.95;;;1.23;;
64351;SDS011;50680;52.626;-8.668;2022-12-29T11:56:05;6.95;;;1.55;;
64351;SDS011;50680;52.626;-8.668;2022-12-29T11:58:36;8.75;;;1.35;;
64351;SDS011;50680;52.626;-8.668;2022-12-29T12:01:20;8.88;;;1.30;;
64351;SDS011;50680;52.626;-8.668;2022-12-29T12:03:59;4.60;;;1.27;;
64351;SDS011;50680;52.626;-8.668;2022-12-29T12:06:30;4.65;;;1.55;;
64351;SDS011;50680;52.626;-8.668;2022-12-29T12:09:14;3.13;;;0.70;;
64351;SDS011;50680;52.626;-8.668;2022-12-29T12:11:49;3.78;;;1.08;;
64351;SDS011;50680;52.626;-8.668;2022-12-29T12:14:21;7.78;;;1.00;;
64351;SDS011;50680;52.626;-8.668;2022-12-29T12:16:55;5.78;;;0.80;;
64351;SDS011;50680;52.626;-8.668;2022-12-29T12:19:36;4.15;;;1.10;;
64351;SDS011;50680;52.626;-8.668;2022-12-29T12:22:10;10.68;;;1.45;;
64351;SDS011;50680;52.626;-8.668;2022-12-29T12:24:47;7.63;;;0.93;;
64351;SDS011;50680;52.626;-8.668;2022-12-29T12:27:31;5.15;;;1.00;;
64351;SDS011;50680;52.626;-8.668;2022-12-29T12:30:16;7.63;;;1.27;;
64351;SDS011;50680;52.626;-8.668;2022-12-29T12:32:52;2.38;;;0.90;;
64351;SDS011;50680;52.626;-8.668;2022-12-29T12:43:24;3.72;;;0.90;;
64351;SDS011;50680;52.626;-8.668;2022-12-29T13:00:15;3.50;;;0.93;;
64351;SDS011;50680;52.626;-8.668;2022-12-29T13:03:06;1.20;;;1.10;;
64351;SDS011;50680;52.626;-8.668;2022-12-29T13:11:49;1.17;;;0.60;;
64351;SDS011;50680;52.626;-8.668;2022-12-29T13:17:28;2.50;;;0.80;;
64351;SDS011;50680;52.626;-8.668;2022-12-29T13:25:42;1.75;;;0.90;;
64351;SDS011;50680;52.626;-8.668;2022-12-29T13:41:53;5.03;;;1.20;;
64351;SDS011;50680;52.626;-8.668;2022-12-29T13:44:22;3.67;;;0.80;;
64351;SDS011;50680;52.626;-8.668;2022-12-29T13:46:54;3.20;;;0.93;;
64351;SDS011;50680;52.626;-8.668;2022-12-29T13:49:25;3.60;;;0.82;;
64351;SDS011;50680;52.626;-8.668;2022-12-29T13:51:55;5.07;;;0.90;;
64351;SDS011;50680;52.626;-8.668;2022-12-29T13:54:41;3.55;;;0.70;;
64351;SDS011;50680;52.626;-8.668;2022-12-29T14:00:18;5.03;;;1.00;;
64351;SDS011;50680;52.626;-8.668;2022-12-29T14:07:46;3.08;;;0.85;;
64351;SDS011;50680;52.626;-8.668;2022-12-29T14:10:28;2.22;;;0.90;;
64351;SDS011;50680;52.626;-8.668;2022-12-29T14:15:56;3.05;;;1.15;;
64351;SDS011;50680;52.626;-8.668;2022-12-29T14:18:25;3.92;;;1.00;;
64351;SDS011;50680;52.626;-8.668;2022-12-29T14:23:46;5.45;;;1.05;;
64351;SDS011;50680;52.626;-8.668;2022-12-29T14:26:17;5.10;;;1.38;;
64351;SDS011;50680;52.626;-8.668;2022-12-29T14:28:54;3.15;;;1.10;;
64351;SDS011;50680;52.626;-8.668;2022-12-29T14:44:32;4.60;;;1.65;;
64351;SDS011;50680;52.626;-8.668;2022-12-29T14:47:01;2.83;;;1.08;;
64351;SDS011;50680;52.626;-8.668;2022-12-29T14:49:42;6.10;;;1.45;;
64351;SDS011;50680;52.626;-8.668;2022-12-29T14:52:17;6.65;;;1.20;;
64351;SDS011;50680;52.626;-8.668;2022-12-29T14:54:56;4.63;;;1.05;;
64351;SDS011;50680;52.626;-8.668;2022-12-29T14:57:27;2.97;;;0.95;;
64351;SDS011;50680;52.626;-8.668;2022-12-29T15:00:01;5.50;;;1.10;;
64351;SDS011;50680;52.626;-8.668;2022-12-29T15:02:33;7.03;;;1.15;;
64351;SDS011;50680;52.626;-8.668;2022-12-29T15:05:05;6.10;;;2.00;;
64351;SDS011;50680;52.626;-8.668;2022-12-29T15:07:45;4.10;;;1.13;;
64351;SDS011;50680;52.626;-8.668;2022-12-29T15:10:13;8.05;;;1.10;;
64351;SDS011;50680;52.626;-8.668;2022-12-29T15:12:46;8.15;;;1.63;;
64351;SDS011;50680;52.626;-8.668;2022-12-29T15:15:26;6.30;;;1.33;;
64351;SDS011;50680;52.626;-8.668;2022-12-29T15:17:56;3.92;;;0.88;;
64351;SDS011;50680;52.626;-8.668;2022-12-29T15:20:27;4.30;;;1.83;;
64351;SDS011;50680;52.626;-8.668;2022-12-29T15:23:04;5.75;;;1.23;;
64351;SDS011;50680;52.626;-8.668;2022-12-29T15:25:46;7.18;;;1.83;;
64351;SDS011;50680;52.626;-8.668;2022-12-29T15:28:20;5.78;;;2.15;;
64351;SDS011;50680;52.626;-8.668;2022-12-29T15:30:55;8.75;;;1.85;;
64351;SDS011;50680;52.626;-8.668;2022-12-29T15:33:30;7.50;;;2.15;;
64351;SDS011;50680;52.626;-8.668;2022-12-29T15:35:57;9.70;;;2.08;;
64351;SDS011;50680;52.626;-8.668;2022-12-29T15:38:30;4.90;;;1.80;;
64351;SDS011;50680;52.626;-8.668;2022-12-29T15:41:06;12.77;;;2.30;;
64351;SDS011;50680;52.626;-8.668;2022-12-29T15:44:08;14.52;;;6.30;;
64351;SDS011;50680;52.626;-8.668;2022-12-29T15:46:46;18.23;;;7.50;;
64351;SDS011;50680;52.626;-8.668;2022-12-29T15:49:13;14.77;;;7.28;;
64351;SDS011;50680;52.626;-8.668;2022-12-29T15:51:40;17.75;;;6.88;;
64351;SDS011;50680;52.626;-8.668;2022-12-29T15:54:18;18.17;;;8.60;;
64351;SDS011;50680;52.626;-8.668;2022-12-29T15:56:47;14.20;;;6.63;;
64351;SDS011;50680;52.626;-8.668;2022-12-29T15:59:23;16.75;;;5.82;;
64351;SDS011;50680;52.626;-8.668;2022-12-29T16:01:58;14.40;;;4.70;;
64351;SDS011;50680;52.626;-8.668;2022-12-29T16:04:32;12.43;;;3.65;;
64351;SDS011;50680;52.626;-8.668;2022-12-29T16:07:29;9.10;;;3.53;;
64351;SDS011;50680;52.626;-8.668;2022-12-29T16:10:21;5.30;;;2.58;;
64351;SDS011;50680;52.626;-8.668;2022-12-29T16:12:51;6.57;;;1.85;;
64351;SDS011;50680;52.626;-8.668;2022-12-29T16:15:18;9.48;;;2.13;;
64351;SDS011;50680;52.626;-8.668;2022-12-29T16:17:49;6.15;;;2.55;;
64351;SDS011;50680;52.626;-8.668;2022-12-29T16:20:21;6.50;;;2.00;;
64351;SDS011;50680;52.626;-8.668;2022-12-29T16:22:55;7.10;;;2.25;;
64351;SDS011;50680;52.626;-8.668;2022-12-29T16:25:27;9.47;;;2.53;;
64351;SDS011;50680;52.626;-8.668;2022-12-29T16:27:58;7.88;;;1.90;;
64351;SDS011;50680;52.626;-8.668;2022-12-29T16:30:30;5.28;;;1.90;;
64351;SDS011;50680;52.626;-8.668;2022-12-29T16:33:01;6.60;;;1.67;;
64351;SDS011;50680;52.626;-8.668;2022-12-29T16:35:38;7.07;;;2.17;;
64351;SDS011;50680;52.626;-8.668;2022-12-29T16:40:56;9.48;;;1.77;;
64351;SDS011;50680;52.626;-8.668;2022-12-29T16:43:31;12.82;;;2.20;;
64351;SDS011;50680;52.626;-8.668;2022-12-29T16:48:31;5.75;;;1.77;;
64351;SDS011;50680;52.626;-8.668;2022-12-29T16:51:45;6.80;;;2.13;;
64351;SDS011;50680;52.626;-8.668;2022-12-29T16:54:06;7.82;;;2.63;;
64351;SDS011;50680;52.626;-8.668;2022-12-29T16:56:46;9.38;;;1.60;;
64351;SDS011;50680;52.626;-8.668;2022-12-29T16:59:25;10.65;;;2.67;;
64351;SDS011;50680;52.626;-8.668;2022-12-29T17:04:23;11.38;;;3.63;;
64351;SDS011;50680;52.626;-8.668;2022-12-29T17:06:49;11.52;;;3.13;;
64351;SDS011;50680;52.626;-8.668;2022-12-29T17:09:17;11.88;;;2.70;;
64351;SDS011;50680;52.626;-8.668;2022-12-29T17:11:52;13.18;;;2.20;;
64351;SDS011;50680;52.626;-8.668;2022-12-29T17:17:39;9.63;;;1.92;;
64351;SDS011;50680;52.626;-8.668;2022-12-29T17:20:25;8.25;;;1.90;;
64351;SDS011;50680;52.626;-8.668;2022-12-29T17:22:54;9.00;;;2.03;;
64351;SDS011;50680;52.626;-8.668;2022-12-29T17:25:26;8.73;;;2.08;;
64351;SDS011;50680;52.626;-8.668;2022-12-29T17:27:57;5.38;;;1.88;;
64351;SDS011;50680;52.626;-8.668;2022-12-29T17:30:27;7.53;;;1.83;;
64351;SDS011;50680;52.626;-8.668;2022-12-29T17:33:34;5.38;;;2.30;;
64351;SDS011;50680;52.626;-8.668;2022-12-29T17:35:53;11.55;;;1.90;;
64351;SDS011;50680;52.626;-8.668;2022-12-29T17:40:55;9.50;;;2.28;;
64351;SDS011;50680;52.626;-8.668;2022-12-29T17:43:23;9.23;;;2.55;;
64351;SDS011;50680;52.626;-8.668;2022-12-29T17:45:52;14.15;;;2.30;;
64351;SDS011;50680;52.626;-8.668;2022-12-29T17:48:20;11.17;;;2.40;;
64351;SDS011;50680;52.626;-8.668;2022-12-29T17:50:49;7.30;;;1.77;;